sensor_id;sensor_type;location;lat;lon;timestamp;P1;durP1;ratioP1;P2;durP2;ratioP2
69789;SDS011;57064;52.046;4.800;2024-02-16T00:00:29;5.82;;;3.55;;
69789;SDS011;57064;52.046;4.800;2024-02-16T00:02:56;8.00;;;3.78;;
69789;SDS011;57064;52.046;4.800;2024-02-16T00:05:24;7.75;;;3.65;;
69789;SDS011;57064;52.046;4.800;2024-02-16T00:07:50;8.40;;;3.13;;
69789;SDS011;57064;52.046;4.800;2024-02-16T00:10:16;6.47;;;3.78;;
69789;SDS011;57064;52.046;4.800;2024-02-16T00:12:44;7.93;;;4.05;;
69789;SDS011;57064;52.046;4.800;2024-02-16T00:15:10;7.80;;;3.67;;
69789;SDS011;57064;52.046;4.800;2024-02-16T00:17:36;7.38;;;3.53;;
69789;SDS011;57064;52.046;4.800;2024-02-16T00:20:03;7.45;;;3.58;;
69789;SDS011;57064;52.046;4.800;2024-02-16T00:22:32;4.05;;;2.90;;
69789;SDS011;57064;52.046;4.800;2024-02-16T00:25:01;8.10;;;3.63;;
69789;SDS011;57064;52.046;4.800;2024-02-16T00:27:28;5.00;;;3.08;;
69789;SDS011;57064;52.046;4.800;2024-02-16T00:29:54;6.47;;;3.63;;
69789;SDS011;57064;52.046;4.800;2024-02-16T00:32:20;5.15;;;3.38;;
69789;SDS011;57064;52.046;4.800;2024-02-16T00:34:49;5.03;;;3.33;;
69789;SDS011;57064;52.046;4.800;2024-02-16T00:37:18;11.52;;;3.97;;
69789;SDS011;57064;52.046;4.800;2024-02-16T00:39:45;5.05;;;3.20;;
69789;SDS011;57064;52.046;4.800;2024-02-16T00:42:11;6.00;;;3.53;;
69789;SDS011;57064;52.046;4.800;2024-02-16T00:44:37;6.40;;;3.20;;
69789;SDS011;57064;52.046;4.800;2024-02-16T00:47:04;6.60;;;3.42;;
69789;SDS011;57064;52.046;4.800;2024-02-16T00:49:31;6.90;;;3.45;;
69789;SDS011;57064;52.046;4.800;2024-02-16T00:51:57;6.82;;;3.30;;
69789;SDS011;57064;52.046;4.800;2024-02-16T00:54:24;8.82;;;3.65;;
69789;SDS011;57064;52.046;4.800;2024-02-16T00:56:50;7.35;;;3.33;;
69789;SDS011;57064;52.046;4.800;2024-02-16T00:59:16;6.75;;;3.22;;
69789;SDS011;57064;52.046;4.800;2024-02-16T01:01:42;8.48;;;3.40;;
69789;SDS011;57064;52.046;4.800;2024-02-16T01:04:10;7.20;;;3.33;;
69789;SDS011;57064;52.046;4.800;2024-02-16T01:06:36;6.63;;;3.45;;
69789;SDS011;57064;52.046;4.800;2024-02-16T01:09:02;8.80;;;3.55;;
69789;SDS011;57064;52.046;4.800;2024-02-16T01:11:28;7.32;;;3.83;;
69789;SDS011;57064;52.046;4.800;2024-02-16T01:13:56;5.88;;;3.45;;
69789;SDS011;57064;52.046;4.800;2024-02-16T01:16:22;8.63;;;4.45;;
69789;SDS011;57064;52.046;4.800;2024-02-16T01:18:49;6.22;;;3.60;;
69789;SDS011;57064;52.046;4.800;2024-02-16T01:21:15;6.60;;;3.80;;
69789;SDS011;57064;52.046;4.800;2024-02-16T01:23:41;6.07;;;3.60;;
69789;SDS011;57064;52.046;4.800;2024-02-16T01:26:08;7.68;;;3.28;;
69789;SDS011;57064;52.046;4.800;2024-02-16T01:28:35;6.35;;;3.63;;
69789;SDS011;57064;52.046;4.800;2024-02-16T01:31:01;8.40;;;3.60;;
69789;SDS011;57064;52.046;4.800;2024-02-16T01:33:27;8.85;;;4.85;;
69789;SDS011;57064;52.046;4.800;2024-02-16T01:35:54;6.65;;;3.65;;
69789;SDS011;57064;52.046;4.800;2024-02-16T01:38:21;5.95;;;3.13;;
69789;SDS011;57064;52.046;4.800;2024-02-16T01:40:49;7.15;;;4.43;;
69789;SDS011;57064;52.046;4.800;2024-02-16T01:43:21;5.25;;;3.20;;
69789;SDS011;57064;52.046;4.800;2024-02-16T01:45:47;6.03;;;3.50;;
69789;SDS011;57064;52.046;4.800;2024-02-16T01:48:14;5.75;;;3.40;;
69789;SDS011;57064;52.046;4.800;2024-02-16T01:50:44;6.72;;;3.15;;
69789;SDS011;57064;52.046;4.800;2024-02-16T01:53:11;8.70;;;3.50;;
69789;SDS011;57064;52.046;4.800;2024-02-16T01:55:39;8.20;;;4.47;;
69789;SDS011;57064;52.046;4.800;2024-02-16T01:58:05;5.97;;;3.20;;
69789;SDS011;57064;52.046;4.800;2024-02-16T02:00:32;6.97;;;4.10;;
69789;SDS011;57064;52.046;4.800;2024-02-16T02:02:58;7.68;;;3.75;;
69789;SDS011;57064;52.046;4.800;2024-02-16T02:05:25;8.88;;;3.97;;
69789;SDS011;57064;52.046;4.800;2024-02-16T02:07:52;8.25;;;3.20;;
69789;SDS011;57064;52.046;4.800;2024-02-16T02:10:18;6.13;;;3.67;;
69789;SDS011;57064;52.046;4.800;2024-02-16T02:12:44;7.82;;;3.65;;
69789;SDS011;57064;52.046;4.800;2024-02-16T02:15:12;7.65;;;3.97;;
69789;SDS011;57064;52.046;4.800;2024-02-16T02:17:38;7.25;;;3.75;;
69789;SDS011;57064;52.046;4.800;2024-02-16T02:20:04;9.82;;;3.20;;
69789;SDS011;57064;52.046;4.800;2024-02-16T02:22:35;10.32;;;5.15;;
69789;SDS011;57064;52.046;4.800;2024-02-16T02:25:05;5.60;;;3.58;;
69789;SDS011;57064;52.046;4.800;2024-02-16T02:27:31;6.88;;;3.67;;
69789;SDS011;57064;52.046;4.800;2024-02-16T02:29:58;8.32;;;4.35;;
69789;SDS011;57064;52.046;4.800;2024-02-16T02:32:24;6.90;;;3.60;;
69789;SDS011;57064;52.046;4.800;2024-02-16T02:34:50;6.90;;;3.70;;
69789;SDS011;57064;52.046;4.800;2024-02-16T02:37:16;6.53;;;4.22;;
69789;SDS011;57064;52.046;4.800;2024-02-16T02:39:42;6.10;;;4.05;;
69789;SDS011;57064;52.046;4.800;2024-02-16T02:42:09;5.28;;;3.67;;
69789;SDS011;57064;52.046;4.800;2024-02-16T02:44:35;8.13;;;4.47;;
69789;SDS011;57064;52.046;4.800;2024-02-16T02:47:01;7.78;;;3.72;;
69789;SDS011;57064;52.046;4.800;2024-02-16T02:49:28;5.43;;;3.75;;
69789;SDS011;57064;52.046;4.800;2024-02-16T02:51:55;9.30;;;4.22;;
69789;SDS011;57064;52.046;4.800;2024-02-16T02:54:21;8.73;;;3.83;;
69789;SDS011;57064;52.046;4.800;2024-02-16T02:56:47;6.70;;;4.25;;
69789;SDS011;57064;52.046;4.800;2024-02-16T02:59:13;8.50;;;4.20;;
69789;SDS011;57064;52.046;4.800;2024-02-16T03:01:39;8.77;;;3.88;;
69789;SDS011;57064;52.046;4.800;2024-02-16T03:04:05;8.32;;;3.67;;
69789;SDS011;57064;52.046;4.800;2024-02-16T03:06:31;6.05;;;3.85;;
69789;SDS011;57064;52.046;4.800;2024-02-16T03:08:57;6.72;;;3.78;;
69789;SDS011;57064;52.046;4.800;2024-02-16T03:11:23;7.78;;;3.88;;
69789;SDS011;57064;52.046;4.800;2024-02-16T03:13:52;6.82;;;3.83;;
69789;SDS011;57064;52.046;4.800;2024-02-16T03:16:18;7.90;;;4.00;;
69789;SDS011;57064;52.046;4.800;2024-02-16T03:18:44;7.50;;;3.97;;
69789;SDS011;57064;52.046;4.800;2024-02-16T03:21:14;5.35;;;3.40;;
69789;SDS011;57064;52.046;4.800;2024-02-16T03:23:41;8.32;;;3.35;;
69789;SDS011;57064;52.046;4.800;2024-02-16T03:26:16;5.90;;;3.47;;
69789;SDS011;57064;52.046;4.800;2024-02-16T03:28:44;6.88;;;3.88;;
69789;SDS011;57064;52.046;4.800;2024-02-16T03:31:18;6.68;;;3.30;;
69789;SDS011;57064;52.046;4.800;2024-02-16T03:33:45;6.72;;;3.63;;
69789;SDS011;57064;52.046;4.800;2024-02-16T03:36:12;8.15;;;3.35;;
69789;SDS011;57064;52.046;4.800;2024-02-16T03:38:44;8.20;;;3.50;;
69789;SDS011;57064;52.046;4.800;2024-02-16T03:41:12;5.88;;;3.65;;
69789;SDS011;57064;52.046;4.800;2024-02-16T03:43:39;9.07;;;3.53;;
69789;SDS011;57064;52.046;4.800;2024-02-16T03:46:07;5.22;;;3.38;;
69789;SDS011;57064;52.046;4.800;2024-02-16T03:48:33;8.43;;;4.05;;
69789;SDS011;57064;52.046;4.800;2024-02-16T03:51:00;7.18;;;3.22;;
69789;SDS011;57064;52.046;4.800;2024-02-16T03:53:28;5.35;;;3.55;;
69789;SDS011;57064;52.046;4.800;2024-02-16T03:55:54;7.97;;;3.80;;
69789;SDS011;57064;52.046;4.800;2024-02-16T03:58:21;6.55;;;4.03;;
69789;SDS011;57064;52.046;4.800;2024-02-16T04:00:47;7.22;;;3.22;;
69789;SDS011;57064;52.046;4.800;2024-02-16T04:03:14;7.18;;;3.15;;
69789;SDS011;57064;52.046;4.800;2024-02-16T04:05:41;8.13;;;3.42;;
69789;SDS011;57064;52.046;4.800;2024-02-16T04:08:08;6.05;;;3.42;;
69789;SDS011;57064;52.046;4.800;2024-02-16T04:10:36;5.50;;;2.90;;
69789;SDS011;57064;52.046;4.800;2024-02-16T04:13:02;8.63;;;4.13;;
69789;SDS011;57064;52.046;4.800;2024-02-16T04:15:28;5.97;;;3.83;;
69789;SDS011;57064;52.046;4.800;2024-02-16T04:17:56;6.40;;;3.13;;
69789;SDS011;57064;52.046;4.800;2024-02-16T04:20:22;6.03;;;3.33;;
69789;SDS011;57064;52.046;4.800;2024-02-16T04:22:48;6.07;;;3.60;;
69789;SDS011;57064;52.046;4.800;2024-02-16T04:25:14;6.22;;;3.67;;
69789;SDS011;57064;52.046;4.800;2024-02-16T04:27:40;6.57;;;3.75;;
69789;SDS011;57064;52.046;4.800;2024-02-16T04:30:06;5.43;;;3.17;;
69789;SDS011;57064;52.046;4.800;2024-02-16T04:32:32;9.02;;;3.78;;
69789;SDS011;57064;52.046;4.800;2024-02-16T04:34:59;5.65;;;3.60;;
69789;SDS011;57064;52.046;4.800;2024-02-16T04:37:25;6.55;;;3.40;;
69789;SDS011;57064;52.046;4.800;2024-02-16T04:39:51;6.93;;;3.60;;
69789;SDS011;57064;52.046;4.800;2024-02-16T04:42:18;5.90;;;3.45;;
69789;SDS011;57064;52.046;4.800;2024-02-16T04:44:45;7.68;;;3.88;;
69789;SDS011;57064;52.046;4.800;2024-02-16T04:47:11;8.82;;;3.70;;
69789;SDS011;57064;52.046;4.800;2024-02-16T04:49:38;7.03;;;3.65;;
69789;SDS011;57064;52.046;4.800;2024-02-16T04:52:04;8.02;;;3.70;;
69789;SDS011;57064;52.046;4.800;2024-02-16T04:54:30;7.57;;;4.18;;
69789;SDS011;57064;52.046;4.800;2024-02-16T04:56:56;7.13;;;4.07;;
69789;SDS011;57064;52.046;4.800;2024-02-16T04:59:23;9.32;;;3.88;;
69789;SDS011;57064;52.046;4.800;2024-02-16T05:01:49;6.22;;;2.97;;
69789;SDS011;57064;52.046;4.800;2024-02-16T05:04:15;6.05;;;3.67;;
69789;SDS011;57064;52.046;4.800;2024-02-16T05:06:45;4.95;;;3.30;;
69789;SDS011;57064;52.046;4.800;2024-02-16T05:09:15;4.65;;;3.20;;
69789;SDS011;57064;52.046;4.800;2024-02-16T05:11:42;6.80;;;3.75;;
69789;SDS011;57064;52.046;4.800;2024-02-16T05:14:08;7.75;;;3.53;;
69789;SDS011;57064;52.046;4.800;2024-02-16T05:16:37;5.55;;;3.65;;
69789;SDS011;57064;52.046;4.800;2024-02-16T05:19:08;8.40;;;4.00;;
69789;SDS011;57064;52.046;4.800;2024-02-16T05:21:34;5.28;;;3.53;;
69789;SDS011;57064;52.046;4.800;2024-02-16T05:24:03;7.03;;;3.60;;
69789;SDS011;57064;52.046;4.800;2024-02-16T05:26:29;7.05;;;4.00;;
69789;SDS011;57064;52.046;4.800;2024-02-16T05:28:55;6.38;;;3.78;;
69789;SDS011;57064;52.046;4.800;2024-02-16T05:31:21;6.78;;;3.47;;
69789;SDS011;57064;52.046;4.800;2024-02-16T05:33:49;7.68;;;3.90;;
69789;SDS011;57064;52.046;4.800;2024-02-16T05:36:18;6.97;;;3.63;;
69789;SDS011;57064;52.046;4.800;2024-02-16T05:39:00;6.35;;;3.53;;
69789;SDS011;57064;52.046;4.800;2024-02-16T05:41:45;11.65;;;4.20;;
69789;SDS011;57064;52.046;4.800;2024-02-16T05:44:11;6.18;;;3.80;;
69789;SDS011;57064;52.046;4.800;2024-02-16T05:46:38;6.78;;;4.03;;
69789;SDS011;57064;52.046;4.800;2024-02-16T05:49:04;8.70;;;4.25;;
69789;SDS011;57064;52.046;4.800;2024-02-16T05:51:38;7.03;;;4.40;;
69789;SDS011;57064;52.046;4.800;2024-02-16T05:54:07;7.82;;;5.15;;
69789;SDS011;57064;52.046;4.800;2024-02-16T05:56:39;7.55;;;3.88;;
69789;SDS011;57064;52.046;4.800;2024-02-16T05:59:06;9.95;;;4.15;;
69789;SDS011;57064;52.046;4.800;2024-02-16T06:01:32;6.40;;;3.70;;
69789;SDS011;57064;52.046;4.800;2024-02-16T06:03:58;6.10;;;4.15;;
69789;SDS011;57064;52.046;4.800;2024-02-16T06:06:24;7.55;;;4.30;;
69789;SDS011;57064;52.046;4.800;2024-02-16T06:08:50;9.35;;;4.18;;
69789;SDS011;57064;52.046;4.800;2024-02-16T06:11:16;7.55;;;4.25;;
69789;SDS011;57064;52.046;4.800;2024-02-16T06:13:43;7.55;;;4.28;;
69789;SDS011;57064;52.046;4.800;2024-02-16T06:16:09;6.55;;;3.90;;
69789;SDS011;57064;52.046;4.800;2024-02-16T06:18:35;11.15;;;4.60;;
69789;SDS011;57064;52.046;4.800;2024-02-16T06:21:02;7.07;;;3.53;;
69789;SDS011;57064;52.046;4.800;2024-02-16T06:23:28;8.68;;;4.28;;
69789;SDS011;57064;52.046;4.800;2024-02-16T06:25:54;9.00;;;4.30;;
69789;SDS011;57064;52.046;4.800;2024-02-16T06:28:20;8.23;;;4.88;;
69789;SDS011;57064;52.046;4.800;2024-02-16T06:30:48;9.68;;;4.20;;
69789;SDS011;57064;52.046;4.800;2024-02-16T06:33:14;8.45;;;4.43;;
69789;SDS011;57064;52.046;4.800;2024-02-16T06:35:40;7.10;;;3.72;;
69789;SDS011;57064;52.046;4.800;2024-02-16T06:38:09;7.18;;;4.18;;
69789;SDS011;57064;52.046;4.800;2024-02-16T06:40:35;7.97;;;4.55;;
69789;SDS011;57064;52.046;4.800;2024-02-16T06:43:01;8.07;;;4.10;;
69789;SDS011;57064;52.046;4.800;2024-02-16T06:45:29;7.45;;;4.03;;
69789;SDS011;57064;52.046;4.800;2024-02-16T06:47:55;7.82;;;4.05;;
69789;SDS011;57064;52.046;4.800;2024-02-16T06:50:21;8.65;;;4.20;;
69789;SDS011;57064;52.046;4.800;2024-02-16T06:52:47;6.75;;;4.07;;
69789;SDS011;57064;52.046;4.800;2024-02-16T06:55:14;11.35;;;4.72;;
69789;SDS011;57064;52.046;4.800;2024-02-16T06:57:40;7.10;;;3.70;;
69789;SDS011;57064;52.046;4.800;2024-02-16T07:00:07;12.05;;;4.85;;
69789;SDS011;57064;52.046;4.800;2024-02-16T07:02:34;7.25;;;3.83;;
69789;SDS011;57064;52.046;4.800;2024-02-16T07:05:00;8.75;;;4.90;;
69789;SDS011;57064;52.046;4.800;2024-02-16T07:07:26;12.30;;;4.68;;
69789;SDS011;57064;52.046;4.800;2024-02-16T07:09:52;10.90;;;4.38;;
69789;SDS011;57064;52.046;4.800;2024-02-16T07:12:18;9.55;;;4.63;;
69789;SDS011;57064;52.046;4.800;2024-02-16T07:14:44;11.43;;;4.70;;
69789;SDS011;57064;52.046;4.800;2024-02-16T07:17:12;11.20;;;4.50;;
69789;SDS011;57064;52.046;4.800;2024-02-16T07:19:40;8.05;;;4.00;;
69789;SDS011;57064;52.046;4.800;2024-02-16T07:22:06;8.13;;;4.55;;
69789;SDS011;57064;52.046;4.800;2024-02-16T07:24:33;11.32;;;4.60;;
69789;SDS011;57064;52.046;4.800;2024-02-16T07:26:59;11.23;;;4.72;;
69789;SDS011;57064;52.046;4.800;2024-02-16T07:29:26;9.00;;;4.55;;
69789;SDS011;57064;52.046;4.800;2024-02-16T07:31:53;8.70;;;4.15;;
69789;SDS011;57064;52.046;4.800;2024-02-16T07:34:19;8.50;;;4.03;;
69789;SDS011;57064;52.046;4.800;2024-02-16T07:36:45;6.20;;;3.92;;
69789;SDS011;57064;52.046;4.800;2024-02-16T07:39:11;10.15;;;4.63;;
69789;SDS011;57064;52.046;4.800;2024-02-16T07:41:37;9.75;;;3.92;;
69789;SDS011;57064;52.046;4.800;2024-02-16T07:44:04;12.32;;;4.78;;
69789;SDS011;57064;52.046;4.800;2024-02-16T07:46:30;7.80;;;4.50;;
69789;SDS011;57064;52.046;4.800;2024-02-16T07:48:56;9.50;;;4.10;;
69789;SDS011;57064;52.046;4.800;2024-02-16T07:51:23;8.35;;;4.25;;
69789;SDS011;57064;52.046;4.800;2024-02-16T07:53:49;10.70;;;4.25;;
69789;SDS011;57064;52.046;4.800;2024-02-16T07:56:15;10.38;;;4.25;;
69789;SDS011;57064;52.046;4.800;2024-02-16T07:58:41;7.28;;;3.92;;
69789;SDS011;57064;52.046;4.800;2024-02-16T08:01:08;7.70;;;3.97;;
69789;SDS011;57064;52.046;4.800;2024-02-16T08:03:40;9.68;;;3.90;;
69789;SDS011;57064;52.046;4.800;2024-02-16T08:06:06;10.43;;;3.83;;
69789;SDS011;57064;52.046;4.800;2024-02-16T08:08:32;7.65;;;4.15;;
69789;SDS011;57064;52.046;4.800;2024-02-16T08:10:58;7.80;;;4.38;;
69789;SDS011;57064;52.046;4.800;2024-02-16T08:13:24;6.63;;;3.08;;
69789;SDS011;57064;52.046;4.800;2024-02-16T08:15:50;5.97;;;3.83;;
69789;SDS011;57064;52.046;4.800;2024-02-16T08:18:17;6.38;;;3.85;;
69789;SDS011;57064;52.046;4.800;2024-02-16T08:20:43;8.77;;;3.67;;
69789;SDS011;57064;52.046;4.800;2024-02-16T08:23:10;7.57;;;4.07;;
69789;SDS011;57064;52.046;4.800;2024-02-16T08:25:38;9.50;;;4.07;;
69789;SDS011;57064;52.046;4.800;2024-02-16T08:28:04;5.88;;;3.65;;
69789;SDS011;57064;52.046;4.800;2024-02-16T08:30:30;7.43;;;4.47;;
69789;SDS011;57064;52.046;4.800;2024-02-16T08:32:57;8.00;;;3.78;;
69789;SDS011;57064;52.046;4.800;2024-02-16T08:35:25;7.05;;;4.05;;
69789;SDS011;57064;52.046;4.800;2024-02-16T08:37:51;7.47;;;4.03;;
69789;SDS011;57064;52.046;4.800;2024-02-16T08:40:20;8.95;;;4.00;;
69789;SDS011;57064;52.046;4.800;2024-02-16T08:42:46;6.40;;;4.20;;
69789;SDS011;57064;52.046;4.800;2024-02-16T08:45:12;7.65;;;3.70;;
69789;SDS011;57064;52.046;4.800;2024-02-16T08:47:40;6.70;;;3.88;;
69789;SDS011;57064;52.046;4.800;2024-02-16T08:50:09;7.43;;;4.03;;
69789;SDS011;57064;52.046;4.800;2024-02-16T08:52:36;6.88;;;3.67;;
69789;SDS011;57064;52.046;4.800;2024-02-16T08:55:03;8.63;;;4.18;;
69789;SDS011;57064;52.046;4.800;2024-02-16T08:57:31;6.25;;;4.05;;
69789;SDS011;57064;52.046;4.800;2024-02-16T08:59:57;9.52;;;3.65;;
69789;SDS011;57064;52.046;4.800;2024-02-16T09:02:23;7.50;;;4.45;;
69789;SDS011;57064;52.046;4.800;2024-02-16T09:04:50;7.60;;;3.88;;
69789;SDS011;57064;52.046;4.800;2024-02-16T09:07:16;6.15;;;3.90;;
69789;SDS011;57064;52.046;4.800;2024-02-16T09:09:42;10.48;;;4.13;;
69789;SDS011;57064;52.046;4.800;2024-02-16T09:12:08;9.27;;;4.55;;
69789;SDS011;57064;52.046;4.800;2024-02-16T09:14:34;11.02;;;4.35;;
69789;SDS011;57064;52.046;4.800;2024-02-16T09:17:00;6.95;;;3.90;;
69789;SDS011;57064;52.046;4.800;2024-02-16T09:19:26;8.63;;;4.32;;
69789;SDS011;57064;52.046;4.800;2024-02-16T09:21:52;8.27;;;4.20;;
69789;SDS011;57064;52.046;4.800;2024-02-16T09:24:20;9.23;;;3.78;;
69789;SDS011;57064;52.046;4.800;2024-02-16T09:26:47;9.68;;;4.93;;
69789;SDS011;57064;52.046;4.800;2024-02-16T09:29:13;8.23;;;4.88;;
69789;SDS011;57064;52.046;4.800;2024-02-16T09:31:44;6.90;;;3.80;;
69789;SDS011;57064;52.046;4.800;2024-02-16T09:34:13;8.23;;;3.95;;
69789;SDS011;57064;52.046;4.800;2024-02-16T09:36:39;10.73;;;5.70;;
69789;SDS011;57064;52.046;4.800;2024-02-16T09:39:05;8.70;;;4.82;;
69789;SDS011;57064;52.046;4.800;2024-02-16T09:41:35;10.80;;;5.47;;
69789;SDS011;57064;52.046;4.800;2024-02-16T09:44:03;8.23;;;4.85;;
69789;SDS011;57064;52.046;4.800;2024-02-16T09:46:32;9.45;;;5.63;;
69789;SDS011;57064;52.046;4.800;2024-02-16T09:49:04;15.48;;;5.95;;
69789;SDS011;57064;52.046;4.800;2024-02-16T09:51:30;15.60;;;6.47;;
69789;SDS011;57064;52.046;4.800;2024-02-16T09:54:00;13.43;;;5.63;;
69789;SDS011;57064;52.046;4.800;2024-02-16T09:56:27;11.68;;;5.85;;
69789;SDS011;57064;52.046;4.800;2024-02-16T09:58:55;13.43;;;6.60;;
69789;SDS011;57064;52.046;4.800;2024-02-16T10:01:22;23.83;;;8.05;;
69789;SDS011;57064;52.046;4.800;2024-02-16T10:03:49;18.63;;;7.72;;
69789;SDS011;57064;52.046;4.800;2024-02-16T10:06:17;21.33;;;8.55;;
69789;SDS011;57064;52.046;4.800;2024-02-16T10:08:49;14.95;;;7.43;;
69789;SDS011;57064;52.046;4.800;2024-02-16T10:11:20;18.85;;;8.10;;
69789;SDS011;57064;52.046;4.800;2024-02-16T10:16:26;17.05;;;8.05;;
69789;SDS011;57064;52.046;4.800;2024-02-16T10:19:05;20.92;;;9.07;;
69789;SDS011;57064;52.046;4.800;2024-02-16T10:21:35;13.98;;;7.20;;
69789;SDS011;57064;52.046;4.800;2024-02-16T10:24:03;20.55;;;8.38;;
69789;SDS011;57064;52.046;4.800;2024-02-16T10:26:33;25.88;;;9.15;;
69789;SDS011;57064;52.046;4.800;2024-02-16T10:29:03;23.50;;;9.57;;
69789;SDS011;57064;52.046;4.800;2024-02-16T10:31:31;22.73;;;9.65;;
69789;SDS011;57064;52.046;4.800;2024-02-16T10:33:59;30.20;;;10.15;;
69789;SDS011;57064;52.046;4.800;2024-02-16T10:36:30;22.55;;;9.27;;
69789;SDS011;57064;52.046;4.800;2024-02-16T10:39:02;22.00;;;10.38;;
69789;SDS011;57064;52.046;4.800;2024-02-16T10:41:32;20.40;;;8.75;;
69789;SDS011;57064;52.046;4.800;2024-02-16T10:44:09;22.60;;;9.60;;
69789;SDS011;57064;52.046;4.800;2024-02-16T10:46:35;22.77;;;9.85;;
69789;SDS011;57064;52.046;4.800;2024-02-16T10:49:03;23.40;;;10.07;;
69789;SDS011;57064;52.046;4.800;2024-02-16T10:51:37;24.55;;;10.32;;
69789;SDS011;57064;52.046;4.800;2024-02-16T10:54:09;28.27;;;9.82;;
69789;SDS011;57064;52.046;4.800;2024-02-16T10:56:37;22.88;;;9.50;;
69789;SDS011;57064;52.046;4.800;2024-02-16T10:59:06;17.80;;;8.55;;
69789;SDS011;57064;52.046;4.800;2024-02-16T11:01:37;17.90;;;9.90;;
69789;SDS011;57064;52.046;4.800;2024-02-16T11:04:05;24.95;;;9.43;;
69789;SDS011;57064;52.046;4.800;2024-02-16T11:06:52;19.98;;;9.85;;
69789;SDS011;57064;52.046;4.800;2024-02-16T11:09:30;24.67;;;10.05;;
69789;SDS011;57064;52.046;4.800;2024-02-16T11:12:00;20.75;;;8.60;;
69789;SDS011;57064;52.046;4.800;2024-02-16T11:14:40;22.38;;;8.95;;
69789;SDS011;57064;52.046;4.800;2024-02-16T11:17:08;19.02;;;9.18;;
69789;SDS011;57064;52.046;4.800;2024-02-16T11:19:40;23.50;;;10.45;;
69789;SDS011;57064;52.046;4.800;2024-02-16T11:22:07;24.70;;;11.80;;
69789;SDS011;57064;52.046;4.800;2024-02-16T11:24:37;23.45;;;10.02;;
69789;SDS011;57064;52.046;4.800;2024-02-16T11:27:13;24.27;;;11.18;;
69789;SDS011;57064;52.046;4.800;2024-02-16T11:29:46;23.65;;;11.40;;
69789;SDS011;57064;52.046;4.800;2024-02-16T11:32:13;22.90;;;10.23;;
69789;SDS011;57064;52.046;4.800;2024-02-16T11:34:39;21.30;;;10.82;;
69789;SDS011;57064;52.046;4.800;2024-02-16T11:37:05;22.15;;;9.07;;
69789;SDS011;57064;52.046;4.800;2024-02-16T11:39:32;16.48;;;7.82;;
69789;SDS011;57064;52.046;4.800;2024-02-16T11:42:09;16.70;;;8.13;;
69789;SDS011;57064;52.046;4.800;2024-02-16T11:44:36;11.07;;;6.07;;
69789;SDS011;57064;52.046;4.800;2024-02-16T11:47:06;10.25;;;5.38;;
69789;SDS011;57064;52.046;4.800;2024-02-16T11:49:40;11.05;;;6.00;;
69789;SDS011;57064;52.046;4.800;2024-02-16T11:52:07;9.43;;;4.15;;
69789;SDS011;57064;52.046;4.800;2024-02-16T11:54:36;9.60;;;5.15;;
69789;SDS011;57064;52.046;4.800;2024-02-16T11:57:03;9.75;;;5.13;;
69789;SDS011;57064;52.046;4.800;2024-02-16T11:59:29;8.35;;;4.80;;
69789;SDS011;57064;52.046;4.800;2024-02-16T12:01:57;6.97;;;4.05;;
69789;SDS011;57064;52.046;4.800;2024-02-16T12:04:27;9.75;;;4.35;;
69789;SDS011;57064;52.046;4.800;2024-02-16T12:06:58;7.60;;;3.75;;
69789;SDS011;57064;52.046;4.800;2024-02-16T12:09:25;8.90;;;4.47;;
69789;SDS011;57064;52.046;4.800;2024-02-16T12:11:52;6.85;;;3.65;;
69789;SDS011;57064;52.046;4.800;2024-02-16T12:14:21;10.38;;;3.97;;
69789;SDS011;57064;52.046;4.800;2024-02-16T12:16:48;6.80;;;3.13;;
69789;SDS011;57064;52.046;4.800;2024-02-16T12:19:21;7.60;;;3.90;;
69789;SDS011;57064;52.046;4.800;2024-02-16T12:21:57;6.03;;;3.25;;
69789;SDS011;57064;52.046;4.800;2024-02-16T12:24:24;8.55;;;4.15;;
69789;SDS011;57064;52.046;4.800;2024-02-16T12:26:50;7.97;;;3.85;;
69789;SDS011;57064;52.046;4.800;2024-02-16T12:29:17;6.72;;;3.83;;
69789;SDS011;57064;52.046;4.800;2024-02-16T12:31:44;9.70;;;4.22;;
69789;SDS011;57064;52.046;4.800;2024-02-16T12:34:11;6.43;;;3.10;;
69789;SDS011;57064;52.046;4.800;2024-02-16T12:36:41;7.28;;;3.15;;
69789;SDS011;57064;52.046;4.800;2024-02-16T12:39:08;10.45;;;5.30;;
69789;SDS011;57064;52.046;4.800;2024-02-16T12:41:37;7.22;;;4.25;;
69789;SDS011;57064;52.046;4.800;2024-02-16T12:44:04;7.45;;;3.17;;
69789;SDS011;57064;52.046;4.800;2024-02-16T12:46:33;5.63;;;2.60;;
69789;SDS011;57064;52.046;4.800;2024-02-16T12:49:00;3.95;;;2.40;;
69789;SDS011;57064;52.046;4.800;2024-02-16T12:51:28;3.22;;;2.00;;
69789;SDS011;57064;52.046;4.800;2024-02-16T12:53:54;7.60;;;2.65;;
69789;SDS011;57064;52.046;4.800;2024-02-16T12:56:20;7.35;;;2.67;;
69789;SDS011;57064;52.046;4.800;2024-02-16T12:58:46;6.18;;;3.08;;
69789;SDS011;57064;52.046;4.800;2024-02-16T13:01:13;9.43;;;4.03;;
69789;SDS011;57064;52.046;4.800;2024-02-16T13:03:39;8.07;;;4.47;;
69789;SDS011;57064;52.046;4.800;2024-02-16T13:06:05;6.53;;;3.85;;
69789;SDS011;57064;52.046;4.800;2024-02-16T13:08:31;12.82;;;6.60;;
69789;SDS011;57064;52.046;4.800;2024-02-16T13:10:58;11.00;;;5.63;;
69789;SDS011;57064;52.046;4.800;2024-02-16T13:13:24;12.77;;;5.60;;
69789;SDS011;57064;52.046;4.800;2024-02-16T13:15:50;12.70;;;6.45;;
69789;SDS011;57064;52.046;4.800;2024-02-16T13:18:16;19.08;;;6.70;;
69789;SDS011;57064;52.046;4.800;2024-02-16T13:20:43;13.32;;;6.63;;
69789;SDS011;57064;52.046;4.800;2024-02-16T13:23:10;12.43;;;6.28;;
69789;SDS011;57064;52.046;4.800;2024-02-16T13:25:36;13.80;;;7.20;;
69789;SDS011;57064;52.046;4.800;2024-02-16T13:28:02;12.82;;;6.85;;
69789;SDS011;57064;52.046;4.800;2024-02-16T13:30:30;11.55;;;6.57;;
69789;SDS011;57064;52.046;4.800;2024-02-16T13:32:56;12.98;;;5.25;;
69789;SDS011;57064;52.046;4.800;2024-02-16T13:35:22;11.23;;;5.85;;
69789;SDS011;57064;52.046;4.800;2024-02-16T13:37:51;12.13;;;4.90;;
69789;SDS011;57064;52.046;4.800;2024-02-16T13:40:17;10.10;;;5.18;;
69789;SDS011;57064;52.046;4.800;2024-02-16T13:42:43;11.65;;;5.88;;
69789;SDS011;57064;52.046;4.800;2024-02-16T13:45:10;13.43;;;5.15;;
69789;SDS011;57064;52.046;4.800;2024-02-16T13:47:36;8.55;;;4.55;;
69789;SDS011;57064;52.046;4.800;2024-02-16T13:50:06;9.35;;;4.25;;
69789;SDS011;57064;52.046;4.800;2024-02-16T13:52:32;9.13;;;4.25;;
69789;SDS011;57064;52.046;4.800;2024-02-16T13:54:59;10.88;;;5.22;;
69789;SDS011;57064;52.046;4.800;2024-02-16T13:57:25;13.27;;;4.63;;
69789;SDS011;57064;52.046;4.800;2024-02-16T13:59:51;9.23;;;4.75;;
69789;SDS011;57064;52.046;4.800;2024-02-16T14:02:18;9.27;;;5.60;;
69789;SDS011;57064;52.046;4.800;2024-02-16T14:04:44;25.00;;;9.15;;
69789;SDS011;57064;52.046;4.800;2024-02-16T14:07:11;10.05;;;5.35;;
69789;SDS011;57064;52.046;4.800;2024-02-16T14:09:37;12.90;;;6.15;;
69789;SDS011;57064;52.046;4.800;2024-02-16T14:12:04;14.05;;;6.20;;
69789;SDS011;57064;52.046;4.800;2024-02-16T14:14:30;11.57;;;7.40;;
69789;SDS011;57064;52.046;4.800;2024-02-16T14:16:56;11.32;;;5.65;;
69789;SDS011;57064;52.046;4.800;2024-02-16T14:19:22;10.35;;;5.00;;
69789;SDS011;57064;52.046;4.800;2024-02-16T14:21:48;11.73;;;5.75;;
69789;SDS011;57064;52.046;4.800;2024-02-16T14:24:15;10.70;;;5.57;;
69789;SDS011;57064;52.046;4.800;2024-02-16T14:26:42;9.75;;;5.80;;
69789;SDS011;57064;52.046;4.800;2024-02-16T14:29:14;12.68;;;6.60;;
69789;SDS011;57064;52.046;4.800;2024-02-16T14:31:40;10.10;;;5.35;;
69789;SDS011;57064;52.046;4.800;2024-02-16T14:34:07;13.20;;;5.90;;
69789;SDS011;57064;52.046;4.800;2024-02-16T14:36:33;13.13;;;6.40;;
69789;SDS011;57064;52.046;4.800;2024-02-16T14:38:59;13.60;;;5.38;;
69789;SDS011;57064;52.046;4.800;2024-02-16T14:41:25;9.63;;;5.00;;
69789;SDS011;57064;52.046;4.800;2024-02-16T14:43:53;9.38;;;5.57;;
69789;SDS011;57064;52.046;4.800;2024-02-16T14:46:19;9.38;;;5.90;;